Time;durP1;ratioP1;P1;durP2;ratioP2;P2;SDS_P1;SDS_P2;PMS_P1;PMS_P2;Temp;Humidity;BMP_temperature;BMP_pressure;BME280_temperature;BME280_humidity;BME280_pressure;Samples;Min_cycle;Max_cycle;Signal;HPM_P1;HPM_P2
2023/02/08 00:01:06;;;;;;;50.08;24.73;;;0.30;99.90;;;;;;5090445;28;20050;-69
2023/02/08 00:03:31;;;;;;;50.67;25.13;;;0.30;99.90;;;;;;5090313;28;20028;-69
2023/02/08 00:05:57;;;;;;;46.00;22.93;;;0.40;99.90;;;;;;5090437;28;20449;-68
2023/02/08 00:08:23;;;;;;;49.53;24.43;;;0.40;99.90;;;;;;5090566;28;20101;-69
2023/02/08 00:10:48;;;;;;;46.73;23.97;;;0.30;99.90;;;;;;5091204;28;20036;-70
2023/02/08 00:13:14;;;;;;;45.22;22.80;;;0.30;99.90;;;;;;5090731;28;20331;-69
2023/02/08 00:15:41;;;;;;;48.13;22.70;;;0.20;99.90;;;;;;5090015;28;20031;-69
2023/02/08 00:18:07;;;;;;;48.25;24.25;;;0.20;99.90;;;;;;5090081;28;20451;-70
2023/02/08 00:20:32;;;;;;;53.45;24.67;;;0.10;99.90;;;;;;5090430;28;20032;-68
2023/02/08 00:22:58;;;;;;;48.03;23.97;;;0.10;99.90;;;;;;5090024;28;20187;-70
2023/02/08 00:25:23;;;;;;;47.40;22.70;;;0.20;99.90;;;;;;5089992;28;20022;-69
2023/02/08 00:27:49;;;;;;;48.53;25.35;;;0.00;99.90;;;;;;5090305;28;20399;-69
2023/02/08 00:30:14;;;;;;;47.10;23.83;;;0.00;99.90;;;;;;5090536;28;20114;-68
2023/02/08 00:32:40;;;;;;;61.03;26.23;;;-0.10;99.90;;;;;;5089840;28;20063;-69
2023/02/08 00:35:06;;;;;;;51.37;24.27;;;-0.10;99.90;;;;;;5089660;28;20361;-70
2023/02/08 00:37:32;;;;;;;49.35;24.77;;;-0.10;99.90;;;;;;5089978;28;20031;-69
2023/02/08 00:40:00;;;;;;;63.27;25.77;;;-0.10;99.90;;;;;;5089640;28;20028;-68
2023/02/08 00:42:26;;;;;;;45.67;23.35;;;-0.10;99.90;;;;;;5090101;28;20642;-69
2023/02/08 00:44:51;;;;;;;49.00;24.38;;;-0.10;99.90;;;;;;5089630;28;20021;-68
2023/02/08 00:47:17;;;;;;;51.50;25.03;;;-0.10;99.90;;;;;;5090357;28;20035;-70
2023/02/08 00:49:43;;;;;;;52.80;25.20;;;-0.10;99.90;;;;;;5089469;28;20278;-69
2023/02/08 00:52:08;;;;;;;52.80;24.83;;;-0.10;99.90;;;;;;5089192;28;20044;-69
2023/02/08 00:54:34;;;;;;;53.90;25.30;;;-0.10;99.90;;;;;;5089308;28;20058;-68
2023/02/08 00:56:59;;;;;;;45.25;24.50;;;-0.10;99.90;;;;;;5089021;28;20631;-68
2023/02/08 00:59:26;;;;;;;47.45;23.85;;;-0.20;99.90;;;;;;5083607;28;20399;-68
2023/02/08 01:01:52;;;;;;;48.33;23.88;;;-0.20;99.90;;;;;;5089696;28;20027;-67
2023/02/08 01:04:17;;;;;;;54.10;25.23;;;-0.30;99.90;;;;;;5089663;28;20028;-68
2023/02/08 01:06:43;;;;;;;49.70;25.50;;;-0.40;99.90;;;;;;5089261;28;20298;-68
2023/02/08 01:09:08;;;;;;;49.67;22.67;;;-0.30;99.90;;;;;;5089204;28;20035;-68
2023/02/08 01:11:34;;;;;;;47.08;25.17;;;-0.30;99.90;;;;;;5088801;28;20555;-68
2023/02/08 01:14:00;;;;;;;55.22;23.67;;;-0.30;99.90;;;;;;5089107;28;20032;-68
2023/02/08 01:16:30;;;;;;;41.92;22.17;;;-0.50;99.90;;;;;;5087233;28;20545;-68
2023/02/08 01:18:57;;;;;;;48.83;23.55;;;-0.40;99.90;;;;;;5088652;28;20035;-69
2023/02/08 01:21:26;;;;;;;51.03;23.38;;;-0.30;99.90;;;;;;5088882;28;20031;-69
2023/02/08 01:23:52;;;;;;;51.13;23.63;;;-0.40;99.90;;;;;;5087971;28;20020;-70
2023/02/08 01:26:18;;;;;;;49.55;24.17;;;-0.40;99.90;;;;;;5089490;28;20472;-70
2023/02/08 01:28:44;;;;;;;45.47;22.80;;;-0.40;99.90;;;;;;5088571;28;20624;-68
2023/02/08 01:31:16;;;;;;;53.53;25.33;;;-0.50;99.90;;;;;;5089052;28;20123;-68
2023/02/08 01:33:42;;;;;;;53.78;24.42;;;-0.50;99.90;;;;;;5087635;28;20504;-68
2023/02/08 01:36:08;;;;;;;45.28;22.58;;;-0.50;99.90;;;;;;5103375;28;20028;-69
2023/02/08 01:38:34;;;;;;;47.58;24.73;;;-0.60;99.90;;;;;;5087140;28;20032;-70
2023/02/08 01:41:01;;;;;;;48.92;23.48;;;-0.70;99.90;;;;;;5089282;28;20384;-70
2023/02/08 01:43:31;;;;;;;;;;;-0.60;99.90;;;;;;5089126;28;20039;-70
2023/02/08 01:45:57;;;;;;;54.00;23.33;;;-0.60;99.90;;;;;;5086598;28;19933;-70
2023/02/08 01:48:24;;;;;;;49.42;23.95;;;-0.70;99.90;;;;;;5088212;28;20547;-70
2023/02/08 01:51:03;;;;;;;48.10;22.85;;;-0.70;99.90;;;;;;5087827;28;20127;-68
2023/02/08 01:53:30;;;;;;;47.88;24.70;;;-0.60;99.90;;;;;;5088222;28;20136;-70
2023/02/08 01:55:59;;;;;;;46.30;24.50;;;-0.60;99.90;;;;;;5088347;28;20020;-70
2023/02/08 01:58:28;;;;;;;54.90;25.25;;;-0.60;99.90;;;;;;5088381;28;20023;-70
2023/02/08 02:00:54;;;;;;;52.20;24.05;;;-0.70;99.90;;;;;;5088695;28;20503;-69
2023/02/08 02:03:22;;;;;;;47.67;23.95;;;-0.70;99.90;;;;;;5088120;28;20099;-69
2023/02/08 02:06:00;;;;;;;46.03;22.23;;;-0.70;99.90;;;;;;5087712;28;20054;-69
2023/02/08 02:08:26;;;;;;;50.22;24.08;;;-0.80;99.90;;;;;;5088048;28;20051;-68
2023/02/08 02:10:52;;;;;;;51.60;23.25;;;-0.70;99.90;;;;;;5088601;28;20576;-70
2023/02/08 02:13:21;;;;;;;51.70;23.10;;;-0.70;99.90;;;;;;5087498;28;20058;-68
2023/02/08 02:15:47;;;;;;;52.75;23.25;;;-0.70;99.90;;;;;;5087489;28;20046;-69
2023/02/08 02:18:22;;;;;;;55.33;24.13;;;-0.70;99.90;;;;;;5085885;28;20020;-69
2023/02/08 02:20:56;;;;;;;45.65;21.58;;;-0.70;99.90;;;;;;5087940;28;20095;-69
2023/02/08 02:23:57;;;;;;;51.60;24.73;;;-0.80;99.90;;;;;;5087472;28;20111;-69
2023/02/08 02:26:44;;;;;;;44.38;22.73;;;-0.70;99.90;;;;;;5079306;28;20028;-70
2023/02/08 02:29:30;;;;;;;50.10;22.88;;;-0.80;99.90;;;;;;5085067;28;20035;-69
2023/02/08 02:32:24;;;;;;;54.27;25.57;;;-0.70;99.90;;;;;;5080063;28;20188;-69
2023/02/08 02:35:07;;;;;;;50.63;23.52;;;-0.80;99.90;;;;;;5087111;28;20050;-70
2023/02/08 02:37:50;;;;;;;48.97;23.50;;;-0.90;99.90;;;;;;5086054;28;20035;-69
2023/02/08 02:40:24;;;;;;;47.67;23.92;;;-0.90;99.90;;;;;;5085512;28;20106;-68
2023/02/08 02:46:20;;;;;;;49.80;22.98;;;-1.00;99.90;;;;;;5087210;28;20062;-68
2023/02/08 02:49:01;;;;;;;48.55;25.02;;;-0.90;99.90;;;;;;5086919;28;20063;-70
2023/02/08 02:51:45;;;;;;;44.55;21.42;;;-0.90;99.90;;;;;;5084796;28;20028;-69
2023/02/08 02:54:17;;;;;;;46.88;22.83;;;-0.90;99.90;;;;;;5087397;28;20031;-70
2023/02/08 02:56:46;;;;;;;53.70;24.42;;;-0.90;99.90;;;;;;5087367;28;20020;-70
2023/02/08 02:59:14;;;;;;;50.53;23.10;;;-1.00;99.90;;;;;;5087331;28;20514;-68
2023/02/08 03:01:43;;;;;;;49.78;24.55;;;-1.00;99.90;;;;;;5086908;28;20111;-69
2023/02/08 03:04:38;;;;;;;52.30;24.45;;;-1.00;99.90;;;;;;5085239;28;20085;-70
2023/02/08 03:07:19;;;;;;;51.95;24.10;;;-1.10;99.90;;;;;;5086711;28;20099;-69
2023/02/08 03:10:12;;;;;;;49.20;23.45;;;-1.10;99.90;;;;;;5086728;28;20024;-68
2023/02/08 03:12:47;;;;;;;45.88;23.95;;;-1.10;99.90;;;;;;5086698;28;20032;-68
2023/02/08 03:15:41;;;;;;;49.38;23.40;;;-1.00;99.90;;;;;;5086847;28;20027;-67
2023/02/08 03:18:25;;;;;;;54.38;24.95;;;-1.10;99.90;;;;;;5081656;28;20019;-68
2023/02/08 03:21:07;;;;;;;51.28;24.33;;;-1.10;99.90;;;;;;5086269;28;20043;-68
2023/02/08 03:23:46;;;;;;;52.55;24.42;;;-1.20;99.90;;;;;;5087056;28;20042;-67
2023/02/08 03:26:18;;;;;;;49.15;22.92;;;-1.20;99.90;;;;;;5086144;28;20024;-67
2023/02/08 03:28:55;;;;;;;53.10;24.27;;;-1.20;99.90;;;;;;5086405;28;20036;-68
2023/02/08 03:31:38;;;;;;;46.70;23.65;;;-1.20;99.90;;;;;;5083197;28;20058;-69
2023/02/08 03:34:22;;;;;;;50.45;23.25;;;-1.30;99.90;;;;;;5085562;28;20024;-69
2023/02/08 03:36:56;;;;;;;47.72;22.45;;;-1.30;99.90;;;;;;5086297;28;20024;-70
2023/02/08 03:39:27;;;;;;;50.67;23.40;;;-1.30;99.90;;;;;;5086344;28;20415;-69
2023/02/08 03:41:58;;;;;;;53.80;25.55;;;-1.30;99.90;;;;;;5086745;28;20031;-69
2023/02/08 03:44:37;;;;;;;40.75;21.00;;;-1.30;99.90;;;;;;5086495;28;20027;-69
2023/02/08 03:47:25;;;;;;;44.63;21.95;;;-1.40;99.90;;;;;;5085103;28;20028;-70
2023/02/08 03:49:52;;;;;;;;;;;-1.40;99.90;;;;;;5110102;28;20484;-70
2023/02/08 03:52:18;;;;;;;48.38;23.30;;;-1.30;99.90;;;;;;5085689;28;19912;-70
2023/02/08 03:55:26;;;;;;;52.40;23.23;;;-1.30;99.90;;;;;;5085565;28;20040;-70
2023/02/08 03:58:06;;;;;;;46.03;23.45;;;-1.40;99.90;;;;;;5046128;28;20122;-70
2023/02/08 04:00:36;;;;;;;46.42;22.20;;;-1.30;99.90;;;;;;5086248;28;20085;-68
2023/02/08 04:03:10;;;;;;;48.25;22.70;;;-1.30;99.90;;;;;;5086758;28;20024;-70
2023/02/08 04:05:36;;;;;;;50.22;22.38;;;-1.30;99.90;;;;;;5084849;28;20020;-69
2023/02/08 04:08:02;;;;;;;48.67;23.40;;;-1.30;99.90;;;;;;5086482;28;20031;-68
2023/02/08 04:10:28;;;;;;;47.33;23.13;;;-1.30;99.90;;;;;;5086290;28;20028;-68
2023/02/08 04:12:53;;;;;;;50.05;23.42;;;-1.40;99.90;;;;;;5083261;28;20036;-68
2023/02/08 04:15:19;;;;;;;45.08;22.42;;;-1.40;99.90;;;;;;5086399;28;20149;-67
2023/02/08 04:17:44;;;;;;;49.95;22.60;;;-1.40;99.90;;;;;;5086058;28;20036;-69
2023/02/08 04:20:10;;;;;;;57.40;24.27;;;-1.40;99.90;;;;;;5086617;28;20118;-70
2023/02/08 04:22:36;;;;;;;45.55;23.63;;;-1.50;99.90;;;;;;5085793;28;20024;-68
2023/02/08 04:25:03;;;;;;;45.80;23.50;;;-1.60;99.90;;;;;;5083847;28;20024;-70
2023/02/08 04:27:29;;;;;;;49.55;24.33;;;-1.60;99.90;;;;;;5086527;28;20274;-68
2023/02/08 04:29:54;;;;;;;64.40;25.08;;;-1.50;99.90;;;;;;5084296;28;20036;-67
2023/02/08 04:32:20;;;;;;;52.95;24.83;;;-1.60;99.90;;;;;;5085649;28;20560;-67
2023/02/08 04:34:45;;;;;;;52.22;23.65;;;-1.60;99.90;;;;;;5086341;28;20115;-70
2023/02/08 04:37:11;;;;;;;49.25;23.00;;;-1.60;99.90;;;;;;5078104;28;20032;-68
2023/02/08 04:39:37;;;;;;;56.83;24.67;;;-1.50;99.90;;;;;;5090477;28;20409;-68
2023/02/08 04:42:02;;;;;;;51.13;24.23;;;-1.60;99.90;;;;;;5090075;28;20036;-69
2023/02/08 04:44:29;;;;;;;47.80;23.08;;;-1.60;99.90;;;;;;5090598;28;20063;-68
2023/02/08 04:46:55;;;;;;;51.63;23.15;;;-1.70;99.90;;;;;;5089354;28;20024;-69
2023/02/08 04:49:21;;;;;;;54.25;25.50;;;-1.80;99.90;;;;;;5090755;28;20035;-69
2023/02/08 04:51:46;;;;;;;54.65;25.00;;;-1.80;99.90;;;;;;5086247;28;20089;-69
2023/02/08 04:54:12;;;;;;;52.92;22.80;;;-1.80;99.90;;;;;;5084197;28;20035;-69
2023/02/08 04:56:38;;;;;;;53.08;24.63;;;-1.80;99.90;;;;;;5087349;28;20059;-70
2023/02/08 04:59:04;;;;;;;50.95;24.35;;;-1.90;99.90;;;;;;5088186;28;20024;-70
2023/02/08 05:01:29;;;;;;;53.00;23.35;;;-1.90;99.90;;;;;;5086450;28;20032;-68
2023/02/08 05:03:55;;;;;;;52.40;24.58;;;-1.90;99.90;;;;;;5086554;28;20043;-68
2023/02/08 05:06:21;;;;;;;50.42;23.27;;;-1.90;99.90;;;;;;5087675;28;20035;-68
2023/02/08 05:08:46;;;;;;;57.22;24.35;;;-2.00;99.90;;;;;;5087818;28;20031;-68
2023/02/08 05:11:12;;;;;;;51.28;24.80;;;-2.00;99.90;;;;;;5087872;28;20035;-68
2023/02/08 05:13:37;;;;;;;48.72;23.08;;;-1.90;99.90;;;;;;5087505;28;20655;-68
2023/02/08 05:16:03;;;;;;;52.20;23.65;;;-1.90;99.90;;;;;;5087255;28;20059;-67
2023/02/08 05:18:29;;;;;;;50.80;24.13;;;-1.90;99.90;;;;;;5086634;28;20039;-67
2023/02/08 05:20:56;;;;;;;49.13;24.15;;;-2.00;99.90;;;;;;5087909;28;20548;-68
2023/02/08 05:23:22;;;;;;;54.28;23.52;;;-2.00;99.90;;;;;;5087541;28;20457;-68
2023/02/08 05:25:48;;;;;;;54.65;24.70;;;-2.00;99.90;;;;;;5086216;28;20024;-68
2023/02/08 05:28:14;;;;;;;56.10;24.70;;;-2.00;99.90;;;;;;5087275;28;20047;-68
2023/02/08 05:30:40;;;;;;;59.50;23.55;;;-2.00;99.90;;;;;;5086190;28;20032;-67
2023/02/08 05:33:05;;;;;;;56.15;26.75;;;-2.00;99.90;;;;;;5086968;28;20093;-67
2023/02/08 05:35:31;;;;;;;56.27;24.57;;;-2.00;99.90;;;;;;5087701;28;20459;-68
2023/02/08 05:37:56;;;;;;;52.85;26.40;;;-2.00;99.90;;;;;;5086910;28;20290;-67
2023/02/08 05:40:22;;;;;;;58.85;27.45;;;-2.00;99.90;;;;;;5086733;28;20035;-69
2023/02/08 05:42:48;;;;;;;54.92;25.02;;;-2.10;99.90;;;;;;5087976;28;20103;-68
2023/02/08 05:45:14;;;;;;;52.33;24.25;;;-2.10;99.90;;;;;;5086932;28;20620;-68
2023/02/08 05:47:40;;;;;;;50.97;23.27;;;-2.10;99.90;;;;;;5086718;28;20035;-68
2023/02/08 05:50:06;;;;;;;50.90;23.45;;;-2.10;99.90;;;;;;5086539;28;20047;-67
2023/02/08 05:52:32;;;;;;;51.30;25.35;;;-2.10;99.90;;;;;;5085053;28;20512;-69
2023/02/08 05:54:58;;;;;;;52.95;24.23;;;-2.00;99.90;;;;;;5086798;28;20035;-68
2023/02/08 05:57:23;;;;;;;53.45;25.25;;;-2.00;99.90;;;;;;5086826;28;20036;-69
2023/02/08 05:59:49;;;;;;;58.50;24.98;;;-2.10;99.90;;;;;;5087348;28;20481;-67
2023/02/08 06:02:14;;;;;;;51.80;23.80;;;-2.10;99.90;;;;;;5087188;28;20040;-69
2023/02/08 06:04:40;;;;;;;49.47;22.55;;;-2.10;99.90;;;;;;5086845;28;20036;-67
2023/02/08 06:07:05;;;;;;;55.08;24.60;;;-2.10;99.90;;;;;;5086809;28;20024;-68
2023/02/08 06:09:31;;;;;;;57.03;24.48;;;-2.10;99.90;;;;;;5087501;28;20412;-68
2023/02/08 06:11:57;;;;;;;52.88;24.83;;;-2.10;99.90;;;;;;5086784;28;20111;-68
2023/02/08 06:14:22;;;;;;;57.40;23.65;;;-2.10;99.90;;;;;;5086210;28;20142;-69
2023/02/08 06:16:48;;;;;;;52.67;25.17;;;-2.10;99.90;;;;;;5087057;28;20024;-68
2023/02/08 06:19:13;;;;;;;56.15;24.20;;;-2.10;99.90;;;;;;5086977;28;20484;-67
2023/02/08 06:21:39;;;;;;;56.25;26.30;;;-2.20;99.90;;;;;;5086922;28;20023;-68
2023/02/08 06:24:05;;;;;;;51.65;25.05;;;-2.20;99.90;;;;;;5086496;28;20038;-68
2023/02/08 06:26:32;;;;;;;53.08;24.88;;;-2.20;99.90;;;;;;5086239;28;20096;-68
2023/02/08 06:28:58;;;;;;;;;;;-2.20;99.90;;;;;;5084854;28;20047;-68
2023/02/08 06:31:24;;;;;;;57.17;24.38;;;-2.20;99.90;;;;;;5084515;28;19907;-68
2023/02/08 06:33:49;;;;;;;62.75;26.27;;;-2.30;99.90;;;;;;5082330;28;20419;-68
2023/02/08 06:36:15;;;;;;;53.35;26.05;;;-2.30;99.90;;;;;;5086509;28;20497;-68
2023/02/08 06:38:41;;;;;;;62.30;25.55;;;-2.30;99.90;;;;;;5084163;28;20150;-69
2023/02/08 06:41:06;;;;;;;61.10;26.48;;;-2.40;99.90;;;;;;5086461;28;20038;-68
2023/02/08 06:43:32;;;;;;;62.20;26.33;;;-2.40;99.90;;;;;;5086285;28;20025;-69
2023/02/08 06:45:57;;;;;;;54.60;25.63;;;-2.40;99.90;;;;;;5086352;28;20493;-69
2023/02/08 06:48:23;;;;;;;54.85;25.05;;;-2.40;99.90;;;;;;5086126;28;20027;-69
2023/02/08 06:50:52;;;;;;;58.78;25.85;;;-2.50;99.90;;;;;;5085702;28;20048;-67
2023/02/08 06:53:18;;;;;;;55.95;26.00;;;-2.40;99.90;;;;;;5085633;28;20628;-68
2023/02/08 06:55:48;;;;;;;56.28;25.27;;;-2.50;99.90;;;;;;5085399;28;20543;-68
2023/02/08 06:58:14;;;;;;;63.03;26.92;;;-2.50;99.90;;;;;;5084604;28;20028;-68
2023/02/08 07:00:39;;;;;;;56.88;26.55;;;-2.50;99.90;;;;;;5084894;28;20101;-72
2023/02/08 07:03:05;;;;;;;60.70;26.70;;;-2.50;99.90;;;;;;5085223;28;20081;-70
2023/02/08 07:05:36;;;;;;;57.72;26.27;;;-2.40;99.90;;;;;;5085376;28;20028;-70
2023/02/08 07:08:02;;;;;;;62.88;28.27;;;-2.40;99.90;;;;;;5085953;28;20077;-70
2023/02/08 07:10:28;;;;;;;;;;;-2.40;99.90;;;;;;5085769;28;20508;-70
2023/02/08 07:12:54;;;;;;;58.20;26.55;;;-2.40;99.90;;;;;;5084710;28;19927;-68
2023/02/08 07:15:19;;;;;;;71.97;27.27;;;-2.40;99.90;;;;;;5084726;28;20484;-69
2023/02/08 07:17:45;;;;;;;66.32;26.05;;;-2.30;99.90;;;;;;5082191;28;20035;-69
2023/02/08 07:20:11;;;;;;;70.30;27.75;;;-2.30;99.90;;;;;;5084312;28;20372;-69
2023/02/08 07:22:37;;;;;;;;;;;-2.20;99.90;;;;;;5083728;28;20087;-69
2023/02/08 07:25:04;;;;;;;65.25;27.10;;;-2.20;99.90;;;;;;5086305;28;19959;-68
2023/02/08 07:27:30;;;;;;;61.42;28.08;;;-2.30;99.90;;;;;;5084648;28;20028;-69
2023/02/08 07:29:55;;;;;;;66.45;29.08;;;-2.20;99.90;;;;;;5082536;28;20036;-69
2023/02/08 07:32:21;;;;;;;69.47;29.67;;;-2.20;99.90;;;;;;5083174;28;20407;-68
2023/02/08 07:34:47;;;;;;;65.40;28.05;;;-2.10;99.90;;;;;;5078350;28;20028;-69
2023/02/08 07:37:12;;;;;;;68.45;29.42;;;-2.00;99.90;;;;;;5082953;28;20028;-69
2023/02/08 07:39:38;;;;;;;65.03;27.92;;;-2.00;99.90;;;;;;5085023;28;20031;-69
2023/02/08 07:42:05;;;;;;;64.93;27.15;;;-2.00;99.90;;;;;;5086236;28;20031;-68
2023/02/08 07:44:31;;;;;;;65.22;28.55;;;-1.90;99.90;;;;;;5082249;28;20495;-69
2023/02/08 07:46:56;;;;;;;65.18;27.83;;;-1.80;99.90;;;;;;5084883;28;20027;-69
2023/02/08 07:49:22;;;;;;;82.30;34.42;;;-1.70;99.90;;;;;;5083654;28;20084;-72
2023/02/08 07:51:48;;;;;;;112.43;46.85;;;-1.70;99.90;;;;;;5084720;28;20027;-68
2023/02/08 07:54:14;;;;;;;132.88;55.63;;;-1.60;99.90;;;;;;5085121;28;20439;-69
2023/02/08 07:56:40;;;;;;;115.55;50.20;;;-1.60;99.90;;;;;;5084474;28;20024;-69
2023/02/08 07:59:05;;;;;;;87.53;37.87;;;-1.30;99.90;;;;;;5085584;28;20059;-68
2023/02/08 08:01:31;;;;;;;76.13;35.67;;;-1.10;99.90;;;;;;5084389;28;20381;-69
2023/02/08 08:03:56;;;;;;;95.93;37.67;;;-0.60;99.90;;;;;;5084073;28;20039;-70
2023/02/08 08:06:22;;;;;;;93.72;41.42;;;-0.40;99.90;;;;;;5075058;28;20031;-69
2023/02/08 08:08:49;;;;;;;90.03;37.90;;;-0.30;99.90;;;;;;5084742;28;20043;-69
2023/02/08 08:11:16;;;;;;;95.18;38.00;;;-0.10;99.90;;;;;;5082607;28;20020;-68
2023/02/08 08:13:42;;;;;;;69.18;28.27;;;1.80;99.90;;;;;;5087931;28;20039;-69
2023/02/08 08:16:08;;;;;;;;;;;2.30;98.60;;;;;;5083634;28;20024;-70
2023/02/08 08:18:34;;;;;;;82.05;29.73;;;2.50;97.60;;;;;;5087450;28;20357;-70
2023/02/08 08:21:00;;;;;;;78.63;30.35;;;2.90;97.60;;;;;;5087452;28;20024;-70
2023/02/08 08:23:27;;;;;;;59.58;28.35;;;3.00;97.10;;;;;;5085188;28;20024;-70
2023/02/08 08:25:53;;;;;;;64.57;27.83;;;2.30;97.60;;;;;;5084198;28;20040;-70
2023/02/08 08:28:19;;;;;;;53.00;25.73;;;1.60;99.50;;;;;;5083376;28;20708;-70
2023/02/08 08:30:45;;;;;;;54.90;26.30;;;0.90;99.90;;;;;;5088655;28;20085;-70
2023/02/08 08:33:12;;;;;;;51.22;26.15;;;0.70;99.90;;;;;;5084783;28;20441;-69
2023/02/08 08:35:39;;;;;;;54.10;26.98;;;0.80;99.90;;;;;;5088517;28;20043;-71
2023/02/08 08:38:04;;;;;;;55.40;27.70;;;0.90;99.90;;;;;;5087457;28;20024;-71
2023/02/08 08:40:30;;;;;;;54.53;28.60;;;1.10;99.90;;;;;;5087410;28;20024;-70
2023/02/08 08:42:56;;;;;;;59.88;28.08;;;2.10;99.90;;;;;;5085673;28;20032;-71
2023/02/08 08:45:22;;;;;;;58.28;27.60;;;3.10;98.10;;;;;;5088434;28;20036;-71
2023/02/08 08:47:48;;;;;;;57.15;26.45;;;3.50;97.00;;;;;;5088760;28;20067;-71
2023/02/08 08:50:13;;;;;;;58.97;28.35;;;2.70;97.70;;;;;;5086732;28;20051;-71
2023/02/08 08:52:39;;;;;;;61.13;26.57;;;2.70;98.00;;;;;;5086719;28;20048;-71
2023/02/08 08:55:06;;;;;;;58.63;27.25;;;3.00;98.00;;;;;;5086347;28;20500;-70
2023/02/08 08:57:31;;;;;;;;;;;5.60;95.20;;;;;;5087079;28;20119;-70
2023/02/08 08:59:57;;;;;;;48.42;25.20;;;7.20;88.80;;;;;;5086930;28;19999;-70
2023/02/08 09:02:23;;;;;;;55.05;27.33;;;7.80;85.50;;;;;;5087870;28;20099;-71
2023/02/08 09:04:48;;;;;;;56.67;27.20;;;8.80;81.70;;;;;;5087285;28;20031;-70
2023/02/08 09:07:14;;;;;;;60.33;26.17;;;10.10;76.50;;;;;;5087122;28;20032;-70
2023/02/08 09:09:40;;;;;;;52.42;26.73;;;10.70;72.50;;;;;;5086229;28;20441;-71
2023/02/08 09:12:06;;;;;;;58.30;27.25;;;11.10;69.50;;;;;;5087504;28;20036;-70
2023/02/08 09:14:32;;;;;;;53.53;25.80;;;10.30;70.90;;;;;;5087527;28;20074;-70
2023/02/08 09:16:58;;;;;;;52.28;26.10;;;10.70;67.80;;;;;;5086887;28;20040;-70
2023/02/08 09:19:24;;;;;;;43.85;25.50;;;11.70;66.90;;;;;;5086775;28;20028;-70
2023/02/08 09:21:49;;;;;;;56.87;27.37;;;11.80;62.90;;;;;;5087339;28;20475;-70
2023/02/08 09:24:15;;;;;;;52.10;26.90;;;12.30;59.80;;;;;;5085642;28;20662;-70
2023/02/08 09:26:41;;;;;;;49.78;27.17;;;12.40;59.30;;;;;;5085990;28;20032;-69
2023/02/08 09:29:07;;;;;;;47.70;26.73;;;12.50;58.20;;;;;;5087408;28;20035;-70
2023/02/08 09:31:36;;;;;;;49.60;26.75;;;13.20;57.00;;;;;;5085954;28;20031;-69
2023/02/08 09:34:03;;;;;;;54.88;27.60;;;13.70;57.20;;;;;;5087885;28;20408;-69
2023/02/08 09:36:32;;;;;;;46.85;25.60;;;14.50;52.10;;;;;;5087581;28;20050;-69
2023/02/08 09:39:03;;;;;;;51.60;26.65;;;13.20;53.90;;;;;;5087595;28;20035;-70
2023/02/08 09:41:47;;;;;;;44.92;26.05;;;12.50;56.90;;;;;;5087693;28;20042;-70
2023/02/08 09:44:15;;;;;;;55.65;28.80;;;11.70;58.20;;;;;;5087939;28;20028;-70
2023/02/08 09:46:49;;;;;;;47.60;27.35;;;10.70;61.50;;;;;;5087558;28;20035;-70
2023/02/08 09:49:21;;;;;;;53.55;27.98;;;10.70;65.30;;;;;;5087781;28;20169;-70
2023/02/08 09:51:54;;;;;;;53.15;27.40;;;10.40;63.60;;;;;;5087653;28;20047;-70
2023/02/08 09:54:29;;;;;;;53.72;27.73;;;10.70;64.80;;;;;;5088070;28;20028;-70
2023/02/08 09:56:55;;;;;;;47.33;27.83;;;10.50;63.10;;;;;;5085208;28;20039;-70
2023/02/08 09:59:25;;;;;;;51.35;29.35;;;10.60;64.70;;;;;;5087756;28;20024;-70
2023/02/08 10:01:59;;;;;;;51.22;29.17;;;10.80;63.00;;;;;;5085597;28;20036;-70
2023/02/08 10:04:59;;;;;;;50.17;29.70;;;11.50;63.90;;;;;;5087463;28;20036;-70
2023/02/08 10:07:26;;;;;;;47.03;28.23;;;12.30;59.50;;;;;;5087040;28;20039;-70
2023/02/08 10:09:58;;;;;;;57.38;30.08;;;12.50;56.80;;;;;;5087523;28;20024;-70
2023/02/08 10:12:45;;;;;;;55.78;30.73;;;10.60;61.70;;;;;;5086501;28;20589;-70
2023/02/08 10:15:33;;;;;;;54.42;29.73;;;9.20;66.50;;;;;;5086227;28;20071;-70
2023/02/08 10:18:24;;;;;;;59.92;29.77;;;8.70;74.30;;;;;;5081564;28;20407;-70
2023/02/08 10:21:08;;;;;;;54.47;28.65;;;8.30;74.40;;;;;;5073719;28;20055;-69
2023/02/08 10:23:48;;;;;;;66.50;29.75;;;8.90;75.40;;;;;;5081322;28;20028;-71
2023/02/08 10:26:30;;;;;;;53.47;28.45;;;10.60;70.40;;;;;;5086022;28;20372;-70
2023/02/08 10:29:14;;;;;;;54.55;28.52;;;11.10;67.00;;;;;;5085117;28;20028;-70
2023/02/08 10:31:52;;;;;;;46.45;27.33;;;11.30;67.30;;;;;;5084113;28;20098;-70
2023/02/08 10:34:44;;;;;;;54.95;28.27;;;11.90;64.10;;;;;;5086099;28;20032;-70
2023/02/08 10:37:26;;;;;;;48.70;27.52;;;11.60;63.80;;;;;;5086164;28;20063;-69
2023/02/08 10:39:52;;;;;;;56.00;27.30;;;9.80;70.20;;;;;;5085511;28;20086;-69
2023/02/08 10:42:22;;;;;;;47.72;27.77;;;9.00;74.40;;;;;;5086451;28;20035;-71
2023/02/08 10:44:59;;;;;;;53.17;27.08;;;8.40;78.90;;;;;;5086571;28;20047;-70
2023/02/08 10:47:48;;;;;;;49.08;26.83;;;8.00;82.50;;;;;;5086240;28;20274;-70
2023/02/08 10:50:20;;;;;;;50.53;27.17;;;7.40;85.10;;;;;;5086002;28;20522;-70
2023/02/08 10:52:46;;;;;;;53.10;29.08;;;7.40;86.50;;;;;;5085443;28;20132;-70
2023/02/08 10:55:16;;;;;;;;;;;7.30;89.80;;;;;;5086788;28;20106;-70
2023/02/08 10:57:45;;;;;;;90.13;31.25;;;7.20;89.50;;;;;;5085766;28;19908;-71
2023/02/08 11:00:44;;;;;;;61.17;28.63;;;7.00;90.30;;;;;;5082268;28;20093;-71
2023/02/08 11:03:23;;;;;;;45.05;27.30;;;6.80;91.00;;;;;;5067302;28;20039;-70
2023/02/08 11:05:49;;;;;;;47.97;28.40;;;7.00;91.10;;;;;;5081720;28;20108;-71
2023/02/08 11:08:26;;;;;;;53.15;28.88;;;7.00;90.00;;;;;;5085384;28;20016;-71
2023/02/08 11:10:59;;;;;;;46.10;27.33;;;7.10;90.00;;;;;;5084917;28;20032;-70
2023/02/08 11:13:46;;;;;;;50.78;29.08;;;6.90;90.20;;;;;;5082953;28;20100;-70
2023/02/08 11:16:22;;;;;;;55.55;29.65;;;6.80;90.40;;;;;;5085392;28;20081;-70
2023/02/08 11:18:52;;;;;;;49.55;28.60;;;6.60;90.40;;;;;;5085805;28;20126;-70
2023/02/08 11:21:32;;;;;;;49.13;27.92;;;6.70;91.40;;;;;;5084449;28;20028;-70
2023/02/08 11:24:01;;;;;;;48.92;29.85;;;6.70;91.60;;;;;;5084767;28;20044;-68
2023/02/08 11:26:41;;;;;;;51.42;29.15;;;6.70;91.20;;;;;;5085464;28;20044;-69
2023/02/08 11:29:17;;;;;;;52.45;29.30;;;6.70;91.70;;;;;;5084380;28;20066;-68
2023/02/08 11:32:01;;;;;;;49.10;25.92;;;6.60;91.40;;;;;;5084149;28;20028;-69
2023/02/08 11:34:37;;;;;;;40.50;23.02;;;6.60;89.70;;;;;;5085096;28;20523;-67
2023/02/08 11:37:27;;;;;;;52.05;26.65;;;6.60;89.00;;;;;;5085441;28;20059;-70
2023/02/08 11:39:58;;;;;;;44.97;26.25;;;6.60;90.60;;;;;;5083546;28;20027;-70
2023/02/08 11:42:40;;;;;;;44.75;26.15;;;6.70;90.50;;;;;;5083594;28;20028;-71
2023/02/08 11:45:06;;;;;;;42.50;24.00;;;6.70;90.60;;;;;;5084347;28;20020;-70
2023/02/08 11:47:34;;;;;;;44.55;24.05;;;6.70;89.20;;;;;;5085024;28;20044;-71
2023/02/08 11:50:03;;;;;;;49.47;25.95;;;6.70;90.30;;;;;;5085521;28;20048;-70
2023/02/08 11:52:34;;;;;;;43.42;25.00;;;6.80;88.70;;;;;;5084011;28;20222;-71
2023/02/08 11:55:18;;;;;;;46.50;25.63;;;6.70;88.10;;;;;;5083606;28;20483;-71
2023/02/08 11:58:15;;;;;;;43.28;22.58;;;6.80;89.70;;;;;;5083534;28;20457;-70
2023/02/08 12:00:43;;;;;;;41.13;22.33;;;6.80;86.40;;;;;;5084115;28;20028;-70
2023/02/08 12:03:17;;;;;;;37.05;21.30;;;6.80;84.90;;;;;;5083625;28;20039;-71
2023/02/08 12:05:57;;;;;;;40.17;22.15;;;6.80;85.10;;;;;;5083540;28;20036;-71
2023/02/08 12:08:29;;;;;;;42.28;22.50;;;6.80;84.20;;;;;;5084789;28;20049;-69
2023/02/08 12:11:07;;;;;;;37.40;20.73;;;6.80;83.50;;;;;;5078707;28;20039;-70
2023/02/08 12:13:49;;;;;;;42.25;21.10;;;6.80;85.50;;;;;;5084252;28;20150;-70
2023/02/08 12:16:33;;;;;;;37.95;21.73;;;6.90;88.00;;;;;;5083981;28;20552;-70
2023/02/08 12:19:46;;;;;;;34.67;20.25;;;7.00;86.20;;;;;;5084936;28;20052;-70
2023/02/08 12:22:19;;;;;;;34.70;19.65;;;7.10;83.70;;;;;;5037178;28;20044;-70
2023/02/08 12:25:17;;;;;;;34.83;19.80;;;7.00;84.60;;;;;;5083173;28;20024;-69
2023/02/08 12:27:57;;;;;;;34.28;17.75;;;7.10;85.10;;;;;;5045520;28;20048;-69
2023/02/08 12:30:33;;;;;;;39.55;19.67;;;7.10;80.70;;;;;;5084569;28;20019;-69
2023/02/08 12:33:20;;;;;;;30.38;16.40;;;7.10;81.50;;;;;;5084180;28;20353;-71
2023/02/08 12:36:24;;;;;;;21.92;11.13;;;7.30;83.00;;;;;;5075394;28;20028;-69
2023/02/08 12:42:11;;;;;;;33.45;16.75;;;7.60;84.40;;;;;;5017884;28;20064;-69
2023/02/08 12:44:58;;;;;;;23.00;11.38;;;7.70;81.70;;;;;;5067014;28;20040;-70
2023/02/08 12:47:45;;;;;;;17.52;8.40;;;7.70;77.20;;;;;;5080937;28;20107;-69
2023/02/08 12:50:38;;;;;;;17.57;7.77;;;7.90;76.40;;;;;;5084665;28;20068;-67
2023/02/08 12:53:29;;;;;;;17.52;6.72;;;8.10;75.60;;;;;;5084297;28;20308;-69
2023/02/08 12:55:59;;;;;;;13.27;6.18;;;8.10;73.40;;;;;;5082582;28;20568;-68
2023/02/08 12:58:30;;;;;;;10.45;5.88;;;8.10;73.60;;;;;;5084016;28;20124;-69